N750XC KFLL-MMUN
Flight info
| Callsign | N750XC |
|---|---|
| Flight time | N/A |
| Altitude | 43000 |
| Route | GLADZ4 LULLS Y196 CANOA UB879 NOSAT NOSAT1B |
| Aircraft | C750/M-SBDE3FGHRWXY/S |
Departure
| Time | 2026-05-03 21:04 |
|---|---|
| Airport | Fort Lauderdale Hollywood International Airport (KFLL) |
Arrival
| Time | N/A |
|---|---|
| Airport | Cancún International Airport (MMUN) |
| Time | Latitude | Longitude | Altitude | Speed | Heading |
|---|---|---|---|---|---|
| 2026-05-03 20:31 | 26.07347 | -80.15681 | 16 ft | 0 kts | 312° |
| 2026-05-03 20:39 | 26.07353 | -80.15680 | 18 ft | 3 kts | 13° |
| 2026-05-03 20:39 | 26.07401 | -80.15677 | 16 ft | 10 kts | 322° |
| 2026-05-03 20:39 | 26.07469 | -80.15749 | 16 ft | 17 kts | 315° |
| 2026-05-03 20:39 | 26.07494 | -80.15869 | 17 ft | 15 kts | 270° |
| 2026-05-03 20:40 | 26.07495 | -80.15976 | 20 ft | 13 kts | 270° |
| 2026-05-03 20:40 | 26.07495 | -80.16064 | 22 ft | 10 kts | 270° |
| 2026-05-03 20:40 | 26.07496 | -80.16144 | 22 ft | 11 kts | 271° |
| 2026-05-03 20:40 | 26.07496 | -80.16230 | 21 ft | 10 kts | 270° |
| 2026-05-03 20:41 | 26.07496 | -80.16264 | 21 ft | 0 kts | 271° |
| 2026-05-03 20:42 | 26.07496 | -80.16299 | 20 ft | 9 kts | 270° |
| 2026-05-03 20:42 | 26.07497 | -80.16370 | 20 ft | 4 kts | 271° |
| 2026-05-03 20:42 | 26.07497 | -80.16372 | 20 ft | 0 kts | 271° |
| 2026-05-03 20:45 | 26.07497 | -80.16384 | 20 ft | 2 kts | 270° |
| 2026-05-03 20:46 | 26.07497 | -80.16394 | 20 ft | 0 kts | 270° |
| 2026-05-03 20:46 | 26.07497 | -80.16413 | 20 ft | 4 kts | 270° |
| 2026-05-03 20:46 | 26.07497 | -80.16447 | 21 ft | 4 kts | 270° |
| 2026-05-03 20:47 | 26.07497 | -80.16470 | 21 ft | 2 kts | 270° |
| 2026-05-03 20:47 | 26.07497 | -80.16482 | 21 ft | 2 kts | 270° |
| 2026-05-03 20:47 | 26.07497 | -80.16500 | 21 ft | 0 kts | 270° |
| 2026-05-03 20:49 | 26.07498 | -80.16509 | 21 ft | 3 kts | 270° |
| 2026-05-03 20:49 | 26.07498 | -80.16529 | 21 ft | 3 kts | 270° |
| 2026-05-03 20:50 | 26.07498 | -80.16543 | 21 ft | 1 kts | 270° |
| 2026-05-03 20:50 | 26.07498 | -80.16548 | 21 ft | 0 kts | 270° |
| 2026-05-03 20:53 | 26.07498 | -80.16578 | 21 ft | 6 kts | 269° |
| 2026-05-03 20:53 | 26.07504 | -80.16620 | 20 ft | 5 kts | 296° |
| 2026-05-03 20:53 | 26.07506 | -80.16622 | 20 ft | 0 kts | 302° |
| 2026-05-03 20:54 | 26.07506 | -80.16623 | 20 ft | 0 kts | 302° |
| 2026-05-03 20:55 | 26.07507 | -80.16624 | 22 ft | 0 kts | 304° |
| 2026-05-03 20:58 | 26.07507 | -80.16625 | 22 ft | 1 kts | 304° |
| 2026-05-03 20:58 | 26.07525 | -80.16640 | 20 ft | 2 kts | 335° |
| 2026-05-03 20:58 | 26.07529 | -80.16641 | 19 ft | 0 kts | 342° |
| 2026-05-03 21:00 | 26.07535 | -80.16642 | 19 ft | 4 kts | 350° |
| 2026-05-03 21:01 | 26.07575 | -80.16643 | 19 ft | 6 kts | 0° |
| 2026-05-03 21:01 | 26.07601 | -80.16643 | 18 ft | 4 kts | 0° |
| 2026-05-03 21:01 | 26.07666 | -80.16641 | 18 ft | 12 kts | 10° |
| 2026-05-03 21:01 | 26.07695 | -80.16576 | 19 ft | 9 kts | 90° |
| 2026-05-03 21:02 | 26.07694 | -80.16557 | 19 ft | 0 kts | 90° |
| 2026-05-03 21:04 | 26.07694 | -80.16549 | 19 ft | 5 kts | 90° |
| 2026-05-03 21:04 | 26.07693 | -80.16222 | 23 ft | 96 kts | 90° |
| 2026-05-03 21:04 | 26.07691 | -80.15192 | 140 ft | 152 kts | 87° |
| 2026-05-03 21:04 | 26.07764 | -80.13957 | 632 ft | 169 kts | 84° |
| 2026-05-03 21:05 | 26.07860 | -80.12619 | 1114 ft | 187 kts | 85° |
| 2026-05-03 21:05 | 26.07790 | -80.11041 | 1463 ft | 215 kts | 93° |
| 2026-05-03 21:05 | 26.08034 | -80.09296 | 1720 ft | 245 kts | 70° |
| 2026-05-03 21:05 | 26.08852 | -80.07574 | 2162 ft | 266 kts | 46° |
| 2026-05-03 21:06 | 26.10390 | -80.06494 | 3116 ft | 261 kts | 20° |
| 2026-05-03 21:06 | 26.12077 | -80.05858 | 3903 ft | 261 kts | 15° |
| 2026-05-03 21:06 | 26.13861 | -80.05221 | 4011 ft | 271 kts | 16° |
| 2026-05-03 21:06 | 26.15697 | -80.04859 | 3963 ft | 266 kts | 354° |
| 2026-05-03 21:07 | 26.17475 | -80.05356 | 4009 ft | 264 kts | 339° |
| 2026-05-03 21:07 | 26.19221 | -80.06043 | 4022 ft | 264 kts | 338° |
| 2026-05-03 21:07 | 26.20948 | -80.06736 | 4007 ft | 264 kts | 335° |
| 2026-05-03 21:07 | 26.22395 | -80.07936 | 3985 ft | 258 kts | 309° |
| 2026-05-03 21:08 | 26.23259 | -80.09712 | 4178 ft | 266 kts | 290° |
| 2026-05-03 21:08 | 26.23906 | -80.11576 | 5457 ft | 254 kts | 290° |
| 2026-05-03 21:08 | 26.24576 | -80.13432 | 6294 ft | 262 kts | 290° |
| 2026-05-03 21:08 | 26.25251 | -80.15324 | 7386 ft | 260 kts | 288° |
| 2026-05-03 21:09 | 26.25543 | -80.17332 | 8318 ft | 265 kts | 271° |
| 2026-05-03 21:09 | 26.25539 | -80.19377 | 9407 ft | 264 kts | 268° |
| 2026-05-03 21:09 | 26.25518 | -80.21439 | 10261 ft | 269 kts | 269° |
| 2026-05-03 21:09 | 26.25497 | -80.23615 | 10486 ft | 294 kts | 269° |
| 2026-05-03 21:10 | 26.25477 | -80.25999 | 10531 ft | 322 kts | 269° |
| 2026-05-03 21:10 | 26.25458 | -80.28552 | 11014 ft | 330 kts | 269° |
| 2026-05-03 21:10 | 26.25441 | -80.31107 | 11763 ft | 331 kts | 269° |
| 2026-05-03 21:10 | 26.25425 | -80.33656 | 12411 ft | 334 kts | 269° |
| 2026-05-03 21:11 | 26.25413 | -80.36250 | 13106 ft | 337 kts | 269° |
| 2026-05-03 21:11 | 26.25401 | -80.38872 | 13773 ft | 340 kts | 269° |
| 2026-05-03 21:11 | 26.25395 | -80.41521 | 14369 ft | 343 kts | 269° |
| 2026-05-03 21:11 | 26.25393 | -80.44180 | 14976 ft | 344 kts | 269° |
| 2026-05-03 21:12 | 26.25397 | -80.46856 | 15595 ft | 342 kts | 269° |
| 2026-05-03 21:12 | 26.25407 | -80.49518 | 16028 ft | 349 kts | 269° |
| 2026-05-03 21:12 | 26.25421 | -80.52231 | 16647 ft | 351 kts | 269° |
| 2026-05-03 21:12 | 26.25441 | -80.54958 | 17336 ft | 351 kts | 269° |
| 2026-05-03 21:13 | 26.25468 | -80.57683 | 18011 ft | 353 kts | 269° |
| 2026-05-03 21:13 | 26.25499 | -80.60451 | 18514 ft | 360 kts | 269° |
| 2026-05-03 21:13 | 26.25533 | -80.63244 | 19120 ft | 362 kts | 269° |
| 2026-05-03 21:13 | 26.25572 | -80.66057 | 19739 ft | 364 kts | 269° |
| 2026-05-03 21:14 | 26.25617 | -80.68883 | 20368 ft | 366 kts | 269° |
| 2026-05-03 21:14 | 26.25669 | -80.71727 | 20984 ft | 369 kts | 269° |
| 2026-05-03 21:14 | 26.25728 | -80.74598 | 21598 ft | 372 kts | 269° |
| 2026-05-03 21:14 | 26.25794 | -80.77486 | 22214 ft | 374 kts | 269° |
| 2026-05-03 21:15 | 26.25867 | -80.80397 | 22818 ft | 377 kts | 269° |
| 2026-05-03 21:15 | 26.25945 | -80.83293 | 23502 ft | 380 kts | 269° |
| 2026-05-03 21:15 | 26.26033 | -80.86247 | 24047 ft | 383 kts | 269° |
| 2026-05-03 21:15 | 26.26126 | -80.89224 | 24633 ft | 386 kts | 269° |
| 2026-05-03 21:16 | 26.26228 | -80.92261 | 25249 ft | 389 kts | 269° |
| 2026-05-03 21:16 | 26.26336 | -80.95275 | 25856 ft | 390 kts | 269° |
| 2026-05-03 21:16 | 26.26446 | -80.98264 | 26399 ft | 393 kts | 269° |
| 2026-05-03 21:16 | 26.26564 | -81.01353 | 26936 ft | 395 kts | 269° |
| 2026-05-03 21:17 | 26.26680 | -81.04384 | 27455 ft | 398 kts | 269° |
| 2026-05-03 21:17 | 26.26761 | -81.06472 | 27801 ft | 399 kts | 269° |
| 2026-05-03 21:17 | 26.26919 | -81.10585 | 28507 ft | 403 kts | 269° |
| 2026-05-03 21:17 | 26.27041 | -81.13716 | 29055 ft | 405 kts | 269° |
| 2026-05-03 21:18 | 26.27013 | -81.16860 | 29468 ft | 406 kts | 261° |
| 2026-05-03 21:18 | 26.26469 | -81.19950 | 30003 ft | 407 kts | 256° |
| 2026-05-03 21:18 | 26.25661 | -81.22977 | 30397 ft | 409 kts | 250° |
| 2026-05-03 21:18 | 26.24563 | -81.25901 | 30799 ft | 410 kts | 245° |
| 2026-05-03 21:19 | 26.23181 | -81.28686 | 31268 ft | 411 kts | 240° |
| 2026-05-03 21:19 | 26.21545 | -81.31280 | 31865 ft | 409 kts | 234° |
| 2026-05-03 21:19 | 26.19674 | -81.33650 | 32471 ft | 407 kts | 229° |
| 2026-05-03 21:19 | 26.17583 | -81.35779 | 33066 ft | 407 kts | 224° |
| 2026-05-03 21:20 | 26.15306 | -81.37658 | 33664 ft | 405 kts | 220° |
| 2026-05-03 21:20 | 26.13019 | -81.39458 | 34221 ft | 402 kts | 221° |
| 2026-05-03 21:20 | 26.10756 | -81.41270 | 34693 ft | 399 kts | 221° |
| 2026-05-03 21:20 | 26.08508 | -81.43064 | 35178 ft | 397 kts | 221° |
| 2026-05-03 21:21 | 26.06256 | -81.44843 | 35703 ft | 395 kts | 221° |
| 2026-05-03 21:21 | 26.04046 | -81.46591 | 36216 ft | 393 kts | 221° |
| 2026-05-03 21:21 | 26.01825 | -81.48354 | 36735 ft | 391 kts | 221° |
| 2026-05-03 21:21 | 25.99608 | -81.50113 | 37137 ft | 392 kts | 221° |
| 2026-05-03 21:22 | 25.97349 | -81.51905 | 37433 ft | 396 kts | 221° |
| 2026-05-03 21:22 | 25.95136 | -81.53653 | 37949 ft | 395 kts | 220° |
| 2026-05-03 21:22 | 25.92900 | -81.55418 | 38524 ft | 392 kts | 221° |
| 2026-05-03 21:22 | 25.90684 | -81.57171 | 39073 ft | 390 kts | 221° |
| 2026-05-03 21:23 | 25.88479 | -81.58914 | 39649 ft | 387 kts | 221° |
| 2026-05-03 21:23 | 25.86290 | -81.60646 | 40180 ft | 385 kts | 221° |
| 2026-05-03 21:23 | 25.84114 | -81.62363 | 40660 ft | 383 kts | 221° |
| 2026-05-03 21:23 | 25.81949 | -81.64070 | 41150 ft | 380 kts | 222° |
| 2026-05-03 21:24 | 25.79794 | -81.65768 | 41670 ft | 378 kts | 222° |
| 2026-05-03 21:24 | 25.77658 | -81.67446 | 42145 ft | 375 kts | 223° |
| 2026-05-03 21:24 | 25.75538 | -81.69132 | 42490 ft | 374 kts | 223° |
| 2026-05-03 21:24 | 25.73427 | -81.70798 | 42864 ft | 372 kts | 222° |
| 2026-05-03 21:25 | 25.71316 | -81.72455 | 42967 ft | 377 kts | 222° |